< < Back
Terminal Aerodrome Forecast


Current Version              Previous Versions:   1  2  3  4  5  6  7  8  9  

Terminal Aerodrome Forecast

184
FTUS44 KHUN 021140
TAFHSV
TAF
KHSV 021140Z 0212/0312 02010G18KT 4SM -DZ BR BKN008 OVC015
     FM021500 04008KT P6SM BKN015 OVC025
     FM022100 06006KT P6SM VCSH BKN015 OVC025
     FM030300 12006KT P6SM VCSH BKN008 OVC015
     FM030800 16008KT 4SM BR VCSH BKN008 OVC015=

Latest METAR

524
SAUS80 KWBC 030300 RRD
MTRHSV
METAR KHSV 030253Z 00000KT 7SM -RA BKN024 OVC041 08/06 A3027 RMK AO2
RAB35 SLP251 P0000 60000 T00830056 58006


USA.gov is the U.S. government's official web portal to all federal, state and local government web resources and services.